sensor_id;sensor_type;location;lat;lon;timestamp;pressure;altitude;pressure_sealevel;temperature;humidity
13068;BME280;6600;51.362;6.686;2023-04-04T00:00:00;102517.69;;;3.40;73.01
13068;BME280;6600;51.362;6.686;2023-04-04T00:02:25;102516.56;;;3.42;73.18
13068;BME280;6600;51.362;6.686;2023-04-04T00:04:51;102525.00;;;3.47;72.74
13068;BME280;6600;51.362;6.686;2023-04-04T00:07:17;102521.63;;;3.45;72.68
13068;BME280;6600;51.362;6.686;2023-04-04T00:09:42;102520.19;;;3.41;72.75
13068;BME280;6600;51.362;6.686;2023-04-04T00:12:07;102525.75;;;3.38;72.84
13068;BME280;6600;51.362;6.686;2023-04-04T00:14:32;102523.56;;;3.43;72.49
13068;BME280;6600;51.362;6.686;2023-04-04T00:16:58;102524.53;;;3.42;72.69
13068;BME280;6600;51.362;6.686;2023-04-04T00:19:23;102522.38;;;3.36;72.46
13068;BME280;6600;51.362;6.686;2023-04-04T00:21:49;102530.22;;;3.38;72.29
13068;BME280;6600;51.362;6.686;2023-04-04T00:24:15;102521.03;;;3.42;72.07
13068;BME280;6600;51.362;6.686;2023-04-04T00:26:40;102521.75;;;3.44;71.36
13068;BME280;6600;51.362;6.686;2023-04-04T00:29:05;102523.44;;;3.45;70.84
13068;BME280;6600;51.362;6.686;2023-04-04T00:31:31;102518.00;;;3.46;70.42
13068;BME280;6600;51.362;6.686;2023-04-04T00:33:56;102527.41;;;3.50;70.72
13068;BME280;6600;51.362;6.686;2023-04-04T00:36:22;102520.88;;;3.54;70.19
13068;BME280;6600;51.362;6.686;2023-04-04T00:38:48;102524.25;;;3.56;69.99
13068;BME280;6600;51.362;6.686;2023-04-04T00:41:13;102523.13;;;3.59;69.52
13068;BME280;6600;51.362;6.686;2023-04-04T00:43:39;102525.41;;;3.64;69.31
13068;BME280;6600;51.362;6.686;2023-04-04T00:46:05;102525.41;;;3.64;68.96
13068;BME280;6600;51.362;6.686;2023-04-04T00:48:32;102526.59;;;3.71;68.24
13068;BME280;6600;51.362;6.686;2023-04-04T00:50:58;102527.44;;;3.71;67.88
13068;BME280;6600;51.362;6.686;2023-04-04T00:53:23;102523.44;;;3.77;66.68
13068;BME280;6600;51.362;6.686;2023-04-04T00:55:48;102523.91;;;3.82;66.27
13068;BME280;6600;51.362;6.686;2023-04-04T00:58:14;102521.97;;;3.84;66.34
13068;BME280;6600;51.362;6.686;2023-04-04T01:00:39;102526.16;;;3.86;66.25
13068;BME280;6600;51.362;6.686;2023-04-04T01:03:05;102519.78;;;3.89;66.52
13068;BME280;6600;51.362;6.686;2023-04-04T01:05:32;102512.00;;;3.97;65.66
13068;BME280;6600;51.362;6.686;2023-04-04T01:07:57;102511.50;;;4.03;64.78
13068;BME280;6600;51.362;6.686;2023-04-04T01:10:23;102508.38;;;3.98;65.60
13068;BME280;6600;51.362;6.686;2023-04-04T01:12:48;102505.47;;;4.01;64.81
13068;BME280;6600;51.362;6.686;2023-04-04T01:15:14;102513.69;;;3.98;65.74
13068;BME280;6600;51.362;6.686;2023-04-04T01:17:40;102509.81;;;4.02;65.48
13068;BME280;6600;51.362;6.686;2023-04-04T01:20:12;102509.34;;;3.97;65.84
13068;BME280;6600;51.362;6.686;2023-04-04T01:22:39;102504.81;;;3.88;66.75
13068;BME280;6600;51.362;6.686;2023-04-04T01:25:06;102503.53;;;3.82;67.24
13068;BME280;6600;51.362;6.686;2023-04-04T01:27:32;102504.03;;;3.76;67.54
13068;BME280;6600;51.362;6.686;2023-04-04T01:29:57;102507.09;;;3.72;68.10
13068;BME280;6600;51.362;6.686;2023-04-04T01:32:52;102502.75;;;3.71;68.76
13068;BME280;6600;51.362;6.686;2023-04-04T01:38:37;102507.81;;;3.63;68.50
13068;BME280;6600;51.362;6.686;2023-04-04T01:41:07;102500.97;;;3.60;68.89
13068;BME280;6600;51.362;6.686;2023-04-04T01:43:33;102500.28;;;3.58;68.78
13068;BME280;6600;51.362;6.686;2023-04-04T01:45:59;102491.59;;;3.56;68.56
13068;BME280;6600;51.362;6.686;2023-04-04T01:48:24;102485.69;;;3.52;69.15
13068;BME280;6600;51.362;6.686;2023-04-04T01:50:50;102489.56;;;3.48;69.60
13068;BME280;6600;51.362;6.686;2023-04-04T01:53:16;102490.66;;;3.46;69.93
13068;BME280;6600;51.362;6.686;2023-04-04T01:55:41;102489.13;;;3.43;69.37
13068;BME280;6600;51.362;6.686;2023-04-04T01:58:07;102490.06;;;3.42;69.85
13068;BME280;6600;51.362;6.686;2023-04-04T02:00:32;102486.13;;;3.37;70.09
13068;BME280;6600;51.362;6.686;2023-04-04T02:02:58;102489.16;;;3.32;70.66
13068;BME280;6600;51.362;6.686;2023-04-04T02:05:23;102489.16;;;3.32;70.43
13068;BME280;6600;51.362;6.686;2023-04-04T02:07:49;102489.66;;;3.26;70.21
13068;BME280;6600;51.362;6.686;2023-04-04T02:10:14;102491.34;;;3.27;70.00
13068;BME280;6600;51.362;6.686;2023-04-04T02:12:40;102487.97;;;3.25;70.82
13068;BME280;6600;51.362;6.686;2023-04-04T02:15:06;102491.81;;;3.21;70.95
13068;BME280;6600;51.362;6.686;2023-04-04T02:17:31;102479.09;;;3.15;71.07
13068;BME280;6600;51.362;6.686;2023-04-04T02:19:56;102485.59;;;3.11;71.29
13068;BME280;6600;51.362;6.686;2023-04-04T02:22:22;102484.63;;;3.12;71.10
13068;BME280;6600;51.362;6.686;2023-04-04T02:24:47;102478.63;;;3.10;71.14
13068;BME280;6600;51.362;6.686;2023-04-04T02:27:12;102488.25;;;3.11;71.31
13068;BME280;6600;51.362;6.686;2023-04-04T02:29:38;102485.00;;;3.08;71.63
13068;BME280;6600;51.362;6.686;2023-04-04T02:32:03;102483.94;;;3.10;70.99
13068;BME280;6600;51.362;6.686;2023-04-04T02:34:28;102482.50;;;3.06;71.47
13068;BME280;6600;51.362;6.686;2023-04-04T02:36:54;102482.94;;;3.11;71.53
13068;BME280;6600;51.362;6.686;2023-04-04T02:39:19;102487.53;;;3.09;71.55
13068;BME280;6600;51.362;6.686;2023-04-04T02:41:44;102482.50;;;3.06;71.68
13068;BME280;6600;51.362;6.686;2023-04-04T02:44:10;102472.38;;;3.00;72.22
13068;BME280;6600;51.362;6.686;2023-04-04T02:46:36;102465.91;;;2.93;72.92
13068;BME280;6600;51.362;6.686;2023-04-04T02:49:01;102465.91;;;2.93;72.81
13068;BME280;6600;51.362;6.686;2023-04-04T02:51:27;102466.97;;;2.90;73.06
13068;BME280;6600;51.362;6.686;2023-04-04T02:53:53;102467.97;;;2.89;73.11
13068;BME280;6600;51.362;6.686;2023-04-04T02:56:18;102463.03;;;2.85;73.05
13068;BME280;6600;51.362;6.686;2023-04-04T02:58:43;102466.63;;;2.84;73.45
13068;BME280;6600;51.362;6.686;2023-04-04T03:01:09;102461.59;;;2.81;73.78
13068;BME280;6600;51.362;6.686;2023-04-04T03:03:34;102459.63;;;2.83;73.14
13068;BME280;6600;51.362;6.686;2023-04-04T03:05:59;102467.97;;;2.78;72.95
13068;BME280;6600;51.362;6.686;2023-04-04T03:08:26;102472.66;;;2.75;73.54
13068;BME280;6600;51.362;6.686;2023-04-04T03:10:52;102474.56;;;2.73;73.83
13068;BME280;6600;51.362;6.686;2023-04-04T03:13:17;102475.91;;;2.67;73.93
13068;BME280;6600;51.362;6.686;2023-04-04T03:15:42;102475.56;;;2.61;74.26
13068;BME280;6600;51.362;6.686;2023-04-04T03:18:08;102471.22;;;2.60;74.07
13068;BME280;6600;51.362;6.686;2023-04-04T03:20:34;102468.56;;;2.60;74.30
13068;BME280;6600;51.362;6.686;2023-04-04T03:22:59;102460.88;;;2.57;74.50
13068;BME280;6600;51.362;6.686;2023-04-04T03:25:24;102459.19;;;2.55;74.57
13068;BME280;6600;51.362;6.686;2023-04-04T03:27:50;102471.97;;;2.50;74.81
13068;BME280;6600;51.362;6.686;2023-04-04T03:30:15;102467.75;;;2.48;75.44
13068;BME280;6600;51.362;6.686;2023-04-04T03:32:41;102470.88;;;2.42;75.50
13068;BME280;6600;51.362;6.686;2023-04-04T03:35:07;102478.94;;;2.40;75.74
13068;BME280;6600;51.362;6.686;2023-04-04T03:37:32;102468.59;;;2.37;75.99
13068;BME280;6600;51.362;6.686;2023-04-04T03:39:58;102466.41;;;2.42;75.85
13068;BME280;6600;51.362;6.686;2023-04-04T03:42:24;102470.00;;;2.41;75.13
13068;BME280;6600;51.362;6.686;2023-04-04T03:44:51;102459.22;;;2.44;74.83
13068;BME280;6600;51.362;6.686;2023-04-04T03:47:17;102454.16;;;2.41;74.76
13068;BME280;6600;51.362;6.686;2023-04-04T03:49:42;102449.09;;;2.38;75.25
13068;BME280;6600;51.362;6.686;2023-04-04T03:52:08;102455.13;;;2.29;75.75
13068;BME280;6600;51.362;6.686;2023-04-04T03:54:33;102456.91;;;2.18;76.05
13068;BME280;6600;51.362;6.686;2023-04-04T03:56:59;102454.63;;;2.13;76.14
13068;BME280;6600;51.362;6.686;2023-04-04T03:59:24;102446.44;;;2.05;77.19
13068;BME280;6600;51.362;6.686;2023-04-04T04:01:49;102449.56;;;1.99;77.43
13068;BME280;6600;51.362;6.686;2023-04-04T04:04:15;102453.41;;;1.95;77.95
13068;BME280;6600;51.362;6.686;2023-04-04T04:06:40;102451.31;;;1.87;78.54
13068;BME280;6600;51.362;6.686;2023-04-04T04:09:06;102444.72;;;1.82;79.11
13068;BME280;6600;51.362;6.686;2023-04-04T04:11:32;102450.00;;;1.82;79.81
13068;BME280;6600;51.362;6.686;2023-04-04T04:13:57;102454.09;;;1.86;79.59
13068;BME280;6600;51.362;6.686;2023-04-04T04:16:24;102454.53;;;1.80;79.73
13068;BME280;6600;51.362;6.686;2023-04-04T04:18:50;102448.78;;;1.75;79.93
13068;BME280;6600;51.362;6.686;2023-04-04T04:21:15;102450.91;;;1.70;80.32
13068;BME280;6600;51.362;6.686;2023-04-04T04:23:40;102453.09;;;1.65;80.87
13068;BME280;6600;51.362;6.686;2023-04-04T04:26:06;102444.41;;;1.63;81.48
13068;BME280;6600;51.362;6.686;2023-04-04T04:28:31;102443.69;;;1.61;81.82
13068;BME280;6600;51.362;6.686;2023-04-04T04:31:03;102444.25;;;1.53;82.24
13068;BME280;6600;51.362;6.686;2023-04-04T04:33:29;102445.81;;;1.44;83.27
13068;BME280;6600;51.362;6.686;2023-04-04T04:36:01;102447.47;;;1.45;84.45
13068;BME280;6600;51.362;6.686;2023-04-04T04:38:27;102445.81;;;1.44;84.46
13068;BME280;6600;51.362;6.686;2023-04-04T04:40:53;102441.47;;;1.43;84.65
13068;BME280;6600;51.362;6.686;2023-04-04T04:43:18;102437.38;;;1.39;84.85
13068;BME280;6600;51.362;6.686;2023-04-04T04:45:44;102440.25;;;1.36;84.83
13068;BME280;6600;51.362;6.686;2023-04-04T04:48:09;102438.69;;;1.34;85.86
13068;BME280;6600;51.362;6.686;2023-04-04T04:50:35;102439.53;;;1.34;86.49
13068;BME280;6600;51.362;6.686;2023-04-04T04:53:00;102429.78;;;1.35;86.05
13068;BME280;6600;51.362;6.686;2023-04-04T04:55:25;102440.25;;;1.36;86.50
13068;BME280;6600;51.362;6.686;2023-04-04T04:57:51;102427.28;;;1.33;86.20
13068;BME280;6600;51.362;6.686;2023-04-04T05:00:17;102440.56;;;1.32;86.83
13068;BME280;6600;51.362;6.686;2023-04-04T05:02:43;102442.38;;;1.31;87.37
13068;BME280;6600;51.362;6.686;2023-04-04T05:05:08;102446.94;;;1.29;87.34
13068;BME280;6600;51.362;6.686;2023-04-04T05:07:33;102449.06;;;1.24;87.82
13068;BME280;6600;51.362;6.686;2023-04-04T05:09:59;102448.44;;;1.21;88.21
13068;BME280;6600;51.362;6.686;2023-04-04T05:12:24;102445.41;;;1.14;88.11
13068;BME280;6600;51.362;6.686;2023-04-04T05:14:49;102444.69;;;1.12;88.78
13068;BME280;6600;51.362;6.686;2023-04-04T05:17:14;102447.56;;;1.09;88.45
13068;BME280;6600;51.362;6.686;2023-04-04T05:19:40;102451.66;;;1.13;88.65
13068;BME280;6600;51.362;6.686;2023-04-04T05:22:06;102456.94;;;1.37;89.57
13068;BME280;6600;51.362;6.686;2023-04-04T05:24:32;102451.09;;;1.44;90.42
13068;BME280;6600;51.362;6.686;2023-04-04T05:26:57;102457.00;;;1.59;90.96
13068;BME280;6600;51.362;6.686;2023-04-04T05:29:23;102450.91;;;1.70;90.70
13068;BME280;6600;51.362;6.686;2023-04-04T05:31:48;102458.66;;;1.84;91.04
13068;BME280;6600;51.362;6.686;2023-04-04T05:34:13;102461.81;;;1.89;90.32
13068;BME280;6600;51.362;6.686;2023-04-04T05:36:38;102470.94;;;1.96;90.59
13068;BME280;6600;51.362;6.686;2023-04-04T05:39:04;102462.31;;;2.05;90.89
13068;BME280;6600;51.362;6.686;2023-04-04T05:41:30;102470.38;;;2.15;90.78
13068;BME280;6600;51.362;6.686;2023-04-04T05:43:55;102466.19;;;2.23;90.89
13068;BME280;6600;51.362;6.686;2023-04-04T05:46:21;102455.34;;;2.26;90.37
13068;BME280;6600;51.362;6.686;2023-04-04T05:48:46;102460.16;;;2.32;89.82
13068;BME280;6600;51.362;6.686;2023-04-04T05:51:12;102464.88;;;2.40;89.64
13068;BME280;6600;51.362;6.686;2023-04-04T05:53:37;102470.63;;;2.45;89.13
13068;BME280;6600;51.362;6.686;2023-04-04T05:56:03;102477.13;;;2.52;89.22
13068;BME280;6600;51.362;6.686;2023-04-04T05:58:28;102481.34;;;2.54;88.77
13068;BME280;6600;51.362;6.686;2023-04-04T06:00:53;102484.94;;;2.65;88.93
13068;BME280;6600;51.362;6.686;2023-04-04T06:03:19;102484.56;;;2.69;88.39
13068;BME280;6600;51.362;6.686;2023-04-04T06:05:49;102485.91;;;2.86;88.42
13068;BME280;6600;51.362;6.686;2023-04-04T06:08:15;102492.50;;;2.91;87.81
13068;BME280;6600;51.362;6.686;2023-04-04T06:10:40;102500.34;;;2.93;86.99
13068;BME280;6600;51.362;6.686;2023-04-04T06:13:06;102499.31;;;3.16;87.17
13068;BME280;6600;51.362;6.686;2023-04-04T06:15:31;102506.50;;;3.25;86.81
13068;BME280;6600;51.362;6.686;2023-04-04T06:17:56;102505.63;;;3.36;86.37
13068;BME280;6600;51.362;6.686;2023-04-04T06:20:22;102500.16;;;3.48;85.60
13068;BME280;6600;51.362;6.686;2023-04-04T06:22:48;102501.81;;;3.61;85.28
13068;BME280;6600;51.362;6.686;2023-04-04T06:25:13;102505.91;;;3.65;84.39
13068;BME280;6600;51.362;6.686;2023-04-04T06:27:39;102510.22;;;3.66;84.29
13068;BME280;6600;51.362;6.686;2023-04-04T06:30:05;102516.50;;;3.65;83.64
13068;BME280;6600;51.362;6.686;2023-04-04T06:32:31;102502.69;;;3.82;83.86
13068;BME280;6600;51.362;6.686;2023-04-04T06:34:57;102508.13;;;4.01;83.05
13068;BME280;6600;51.362;6.686;2023-04-04T06:37:23;102514.53;;;4.19;82.21
13068;BME280;6600;51.362;6.686;2023-04-04T06:39:48;102513.69;;;4.39;81.32
13068;BME280;6600;51.362;6.686;2023-04-04T06:42:13;102514.88;;;4.56;79.06
13068;BME280;6600;51.362;6.686;2023-04-04T06:44:39;102523.03;;;4.64;77.78
13068;BME280;6600;51.362;6.686;2023-04-04T06:47:04;102528.13;;;4.86;78.13
13068;BME280;6600;51.362;6.686;2023-04-04T06:49:30;102533.66;;;5.04;77.28
13068;BME280;6600;51.362;6.686;2023-04-04T06:51:56;102529.38;;;5.22;76.13
13068;BME280;6600;51.362;6.686;2023-04-04T06:54:23;102536.94;;;5.27;75.55
13068;BME280;6600;51.362;6.686;2023-04-04T06:56:49;102524.22;;;5.40;75.31
13068;BME280;6600;51.362;6.686;2023-04-04T06:59:14;102532.25;;;5.69;74.98
13068;BME280;6600;51.362;6.686;2023-04-04T07:01:39;102528.34;;;5.92;72.28
13068;BME280;6600;51.362;6.686;2023-04-04T07:04:05;102527.63;;;6.09;71.86
13068;BME280;6600;51.362;6.686;2023-04-04T07:06:30;102530.88;;;6.03;70.21
13068;BME280;6600;51.362;6.686;2023-04-04T07:08:56;102527.75;;;6.07;70.10
13068;BME280;6600;51.362;6.686;2023-04-04T07:11:21;102529.75;;;6.05;68.71
13068;BME280;6600;51.362;6.686;2023-04-04T07:13:48;102537.72;;;5.96;67.04
13068;BME280;6600;51.362;6.686;2023-04-04T07:16:13;102525.53;;;6.03;67.90
13068;BME280;6600;51.362;6.686;2023-04-04T07:18:38;102531.97;;;6.00;67.12
13068;BME280;6600;51.362;6.686;2023-04-04T07:21:04;102532.25;;;6.17;66.95
13068;BME280;6600;51.362;6.686;2023-04-04T07:23:30;102528.31;;;6.30;67.68
13068;BME280;6600;51.362;6.686;2023-04-04T07:25:55;102526.84;;;6.45;64.83
13068;BME280;6600;51.362;6.686;2023-04-04T07:28:21;102518.97;;;6.53;63.57
13068;BME280;6600;51.362;6.686;2023-04-04T07:30:46;102520.06;;;6.60;62.41
13068;BME280;6600;51.362;6.686;2023-04-04T07:33:12;102527.66;;;6.55;60.37
13068;BME280;6600;51.362;6.686;2023-04-04T07:35:37;102524.00;;;6.56;60.88
13068;BME280;6600;51.362;6.686;2023-04-04T07:38:03;102518.00;;;6.54;60.71
13068;BME280;6600;51.362;6.686;2023-04-04T07:40:29;102524.59;;;6.50;60.23
13068;BME280;6600;51.362;6.686;2023-04-04T07:42:54;102515.34;;;6.54;60.58
13068;BME280;6600;51.362;6.686;2023-04-04T07:45:20;102508.59;;;6.60;60.52
13068;BME280;6600;51.362;6.686;2023-04-04T07:47:46;102507.34;;;6.54;59.29
13068;BME280;6600;51.362;6.686;2023-04-04T07:50:12;102511.97;;;6.52;60.52
13068;BME280;6600;51.362;6.686;2023-04-04T07:52:38;102511.66;;;6.55;59.61
13068;BME280;6600;51.362;6.686;2023-04-04T07:55:04;102502.56;;;6.58;59.08
13068;BME280;6600;51.362;6.686;2023-04-04T07:57:32;102509.13;;;6.64;58.36
13068;BME280;6600;51.362;6.686;2023-04-04T07:59:57;102504.22;;;6.69;59.18
13068;BME280;6600;51.362;6.686;2023-04-04T08:02:23;102502.88;;;6.82;59.37
13068;BME280;6600;51.362;6.686;2023-04-04T08:04:49;102502.53;;;6.95;59.02
13068;BME280;6600;51.362;6.686;2023-04-04T08:07:14;102502.53;;;6.95;57.92
13068;BME280;6600;51.362;6.686;2023-04-04T08:09:40;102516.28;;;6.90;56.73
13068;BME280;6600;51.362;6.686;2023-04-04T08:12:05;102518.81;;;6.92;55.20
13068;BME280;6600;51.362;6.686;2023-04-04T08:14:32;102517.13;;;6.91;55.01
13068;BME280;6600;51.362;6.686;2023-04-04T08:16:57;102512.34;;;6.94;55.04
13068;BME280;6600;51.362;6.686;2023-04-04T08:19:23;102514.28;;;7.02;54.31
13068;BME280;6600;51.362;6.686;2023-04-04T08:21:48;102527.78;;;6.91;54.93
13068;BME280;6600;51.362;6.686;2023-04-04T08:24:14;102520.75;;;6.99;55.07
13068;BME280;6600;51.362;6.686;2023-04-04T08:26:39;102525.50;;;7.05;54.45
13068;BME280;6600;51.362;6.686;2023-04-04T08:29:05;102523.97;;;7.03;54.83
13068;BME280;6600;51.362;6.686;2023-04-04T08:31:30;102522.59;;;6.99;56.01
13068;BME280;6600;51.362;6.686;2023-04-04T08:33:55;102521.03;;;6.96;55.76
13068;BME280;6600;51.362;6.686;2023-04-04T08:36:21;102521.84;;;7.06;55.80
13068;BME280;6600;51.362;6.686;2023-04-04T08:38:46;102513.28;;;7.30;56.96
13068;BME280;6600;51.362;6.686;2023-04-04T08:41:12;102514.66;;;7.34;55.11
13068;BME280;6600;51.362;6.686;2023-04-04T08:43:40;102508.19;;;7.54;56.30
13068;BME280;6600;51.362;6.686;2023-04-04T08:46:08;102519.00;;;7.53;53.28
13068;BME280;6600;51.362;6.686;2023-04-04T08:48:36;102509.72;;;7.57;54.06
13068;BME280;6600;51.362;6.686;2023-04-04T08:51:03;102512.28;;;7.84;55.70
13068;BME280;6600;51.362;6.686;2023-04-04T08:53:30;102514.13;;;7.84;54.71
13068;BME280;6600;51.362;6.686;2023-04-04T08:55:58;102510.75;;;7.99;53.99
13068;BME280;6600;51.362;6.686;2023-04-04T08:58:24;102507.19;;;7.73;52.65
13068;BME280;6600;51.362;6.686;2023-04-04T09:00:53;102513.00;;;7.69;53.95
13068;BME280;6600;51.362;6.686;2023-04-04T09:03:23;102515.72;;;7.77;55.12
13068;BME280;6600;51.362;6.686;2023-04-04T09:05:48;102504.38;;;7.92;55.08
13068;BME280;6600;51.362;6.686;2023-04-04T09:08:15;102507.59;;;8.04;55.17
13068;BME280;6600;51.362;6.686;2023-04-04T09:10:42;102501.50;;;8.29;55.27
13068;BME280;6600;51.362;6.686;2023-04-04T09:13:08;102501.56;;;8.20;53.73
13068;BME280;6600;51.362;6.686;2023-04-04T09:15:35;102505.72;;;8.40;54.76
13068;BME280;6600;51.362;6.686;2023-04-04T09:18:03;102507.13;;;8.52;52.97
13068;BME280;6600;51.362;6.686;2023-04-04T09:20:42;102502.94;;;8.49;52.66
13068;BME280;6600;51.362;6.686;2023-04-04T09:23:10;102504.94;;;8.47;53.08
13068;BME280;6600;51.362;6.686;2023-04-04T09:25:36;102498.13;;;8.27;51.79
13068;BME280;6600;51.362;6.686;2023-04-04T09:28:03;102484.44;;;7.87;52.92
13068;BME280;6600;51.362;6.686;2023-04-04T09:30:31;102493.59;;;8.02;53.82
13068;BME280;6600;51.362;6.686;2023-04-04T09:33:05;102491.78;;;8.28;53.34
13068;BME280;6600;51.362;6.686;2023-04-04T09:35:35;102490.56;;;8.48;51.25
13068;BME280;6600;51.362;6.686;2023-04-04T09:38:02;102485.34;;;8.65;51.69
13068;BME280;6600;51.362;6.686;2023-04-04T09:40:28;102485.13;;;9.00;52.50
13068;BME280;6600;51.362;6.686;2023-04-04T09:42:54;102482.13;;;8.95;51.30
13068;BME280;6600;51.362;6.686;2023-04-04T09:45:23;102477.09;;;8.92;51.31
13068;BME280;6600;51.362;6.686;2023-04-04T09:47:50;102487.78;;;8.92;50.65
13068;BME280;6600;51.362;6.686;2023-04-04T09:50:23;102482.41;;;8.84;50.71
13068;BME280;6600;51.362;6.686;2023-04-04T09:52:55;102487.13;;;8.98;51.54
13068;BME280;6600;51.362;6.686;2023-04-04T09:55:21;102483.66;;;9.05;51.06
13068;BME280;6600;51.362;6.686;2023-04-04T09:57:55;102486.41;;;9.30;51.19
13068;BME280;6600;51.362;6.686;2023-04-04T10:00:20;102491.19;;;9.18;48.87
13068;BME280;6600;51.362;6.686;2023-04-04T10:02:47;102492.25;;;9.41;51.28
13068;BME280;6600;51.362;6.686;2023-04-04T10:05:13;102487.84;;;9.08;49.20
13068;BME280;6600;51.362;6.686;2023-04-04T10:07:39;102482.91;;;9.37;51.03
13068;BME280;6600;51.362;6.686;2023-04-04T10:10:07;102479.53;;;9.35;51.47
13068;BME280;6600;51.362;6.686;2023-04-04T10:12:36;102484.41;;;8.90;52.71
13068;BME280;6600;51.362;6.686;2023-04-04T10:15:02;102478.44;;;8.96;53.44
13068;BME280;6600;51.362;6.686;2023-04-04T10:17:36;102470.00;;;8.75;52.14
13068;BME280;6600;51.362;6.686;2023-04-04T10:20:07;102477.09;;;8.92;51.08
13068;BME280;6600;51.362;6.686;2023-04-04T10:22:36;102472.31;;;9.11;49.32
13068;BME280;6600;51.362;6.686;2023-04-04T10:25:05;102473.22;;;9.44;50.10
13068;BME280;6600;51.362;6.686;2023-04-04T10:27:32;102466.03;;;9.61;51.52
13068;BME280;6600;51.362;6.686;2023-04-04T10:29:58;102460.19;;;9.57;48.40
13068;BME280;6600;51.362;6.686;2023-04-04T10:32:33;102464.53;;;9.75;48.95
13068;BME280;6600;51.362;6.686;2023-04-04T10:35:04;102454.16;;;9.72;48.63
13068;BME280;6600;51.362;6.686;2023-04-04T10:37:36;102452.78;;;9.35;48.01
13068;BME280;6600;51.362;6.686;2023-04-04T10:40:18;102452.94;;;9.26;49.90
13068;BME280;6600;51.362;6.686;2023-04-04T10:42:45;102441.03;;;9.04;51.17
13068;BME280;6600;51.362;6.686;2023-04-04T10:45:15;102449.44;;;9.33;50.60
13068;BME280;6600;51.362;6.686;2023-04-04T10:47:41;102451.94;;;9.35;49.64
13068;BME280;6600;51.362;6.686;2023-04-04T10:50:07;102434.91;;;9.44;50.78
13068;BME280;6600;51.362;6.686;2023-04-04T10:52:41;102435.59;;;9.54;50.71
13068;BME280;6600;51.362;6.686;2023-04-04T10:55:10;102430.41;;;9.69;50.79
13068;BME280;6600;51.362;6.686;2023-04-04T10:57:39;102425.19;;;9.83;50.34
13068;BME280;6600;51.362;6.686;2023-04-04T11:00:06;102417.34;;;9.82;48.61
13068;BME280;6600;51.362;6.686;2023-04-04T11:05:10;102418.66;;;10.10;48.91
13068;BME280;6600;51.362;6.686;2023-04-04T11:07:38;102407.22;;;10.32;49.32
13068;BME280;6600;51.362;6.686;2023-04-04T11:10:12;102423.97;;;10.34;46.89
13068;BME280;6600;51.362;6.686;2023-04-04T11:12:42;102410.31;;;9.81;47.80
13068;BME280;6600;51.362;6.686;2023-04-04T11:15:10;102397.25;;;9.78;48.56
13068;BME280;6600;51.362;6.686;2023-04-04T11:20:20;102394.59;;;9.45;49.31
13068;BME280;6600;51.362;6.686;2023-04-04T11:23:01;102407.97;;;9.86;49.26
13068;BME280;6600;51.362;6.686;2023-04-04T11:25:31;102399.75;;;9.79;49.33
13068;BME280;6600;51.362;6.686;2023-04-04T11:27:57;102388.56;;;9.84;49.16
13068;BME280;6600;51.362;6.686;2023-04-04T11:30:24;102387.84;;;10.14;48.55
13068;BME280;6600;51.362;6.686;2023-04-04T11:32:50;102397.59;;;9.67;48.45
13068;BME280;6600;51.362;6.686;2023-04-04T11:35:16;102397.25;;;9.70;48.55
13068;BME280;6600;51.362;6.686;2023-04-04T11:38:02;102388.56;;;9.59;48.02
13068;BME280;6600;51.362;6.686;2023-04-04T11:40:38;102398.28;;;9.60;48.33
13068;BME280;6600;51.362;6.686;2023-04-04T11:43:08;102389.56;;;9.67;46.23
13068;BME280;6600;51.362;6.686;2023-04-04T11:45:36;102394.13;;;9.58;47.52
13068;BME280;6600;51.362;6.686;2023-04-04T11:48:04;102387.22;;;9.80;47.88
13068;BME280;6600;51.362;6.686;2023-04-04T11:50:34;102384.91;;;9.69;47.75
13068;BME280;6600;51.362;6.686;2023-04-04T11:53:04;102380.16;;;10.03;47.98
13068;BME280;6600;51.362;6.686;2023-04-04T11:55:30;102378.44;;;10.26;49.04
13068;BME280;6600;51.362;6.686;2023-04-04T11:57:55;102371.59;;;10.07;45.77
13068;BME280;6600;51.362;6.686;2023-04-04T12:00:31;102368.16;;;9.75;46.14
13068;BME280;6600;51.362;6.686;2023-04-04T12:02:56;102369.16;;;9.82;46.64
13068;BME280;6600;51.362;6.686;2023-04-04T12:05:22;102367.13;;;9.84;45.54
13068;BME280;6600;51.362;6.686;2023-04-04T12:07:49;102352.34;;;10.04;46.52
13068;BME280;6600;51.362;6.686;2023-04-04T12:10:15;102354.38;;;10.10;46.48
13068;BME280;6600;51.362;6.686;2023-04-04T12:12:41;102370.78;;;10.15;45.91
13068;BME280;6600;51.362;6.686;2023-04-04T12:15:07;102363.38;;;10.17;46.85
13068;BME280;6600;51.362;6.686;2023-04-04T12:17:38;102364.75;;;10.05;45.73
13068;BME280;6600;51.362;6.686;2023-04-04T12:20:03;102359.78;;;9.86;45.73
13068;BME280;6600;51.362;6.686;2023-04-04T12:22:34;102355.00;;;10.12;47.66
13068;BME280;6600;51.362;6.686;2023-04-04T12:25:00;102356.38;;;10.00;46.18
13068;BME280;6600;51.362;6.686;2023-04-04T12:27:25;102343.81;;;10.17;47.24
13068;BME280;6600;51.362;6.686;2023-04-04T12:29:52;102348.38;;;9.92;46.62
13068;BME280;6600;51.362;6.686;2023-04-04T12:32:18;102344.38;;;9.96;45.40
13068;BME280;6600;51.362;6.686;2023-04-04T12:34:46;102340.09;;;10.26;46.71
13068;BME280;6600;51.362;6.686;2023-04-04T12:37:11;102323.75;;;10.51;46.09
13068;BME280;6600;51.362;6.686;2023-04-04T12:39:41;102338.16;;;10.73;44.79
13068;BME280;6600;51.362;6.686;2023-04-04T12:42:10;102333.28;;;10.77;44.89
13068;BME280;6600;51.362;6.686;2023-04-04T12:44:37;102331.69;;;10.68;43.49
13068;BME280;6600;51.362;6.686;2023-04-04T12:47:07;102319.31;;;10.58;43.95
13068;BME280;6600;51.362;6.686;2023-04-04T12:49:45;102317.66;;;10.57;43.01
13068;BME280;6600;51.362;6.686;2023-04-04T12:52:29;102316.56;;;10.75;45.23
13068;BME280;6600;51.362;6.686;2023-04-04T12:55:05;102311.06;;;10.68;45.10
13068;BME280;6600;51.362;6.686;2023-04-04T12:57:32;102305.88;;;10.67;44.16
13068;BME280;6600;51.362;6.686;2023-04-04T13:00:00;102299.91;;;10.56;43.83
13068;BME280;6600;51.362;6.686;2023-04-04T13:02:28;102290.84;;;10.57;45.44
13068;BME280;6600;51.362;6.686;2023-04-04T13:04:54;102300.38;;;10.37;45.39
13068;BME280;6600;51.362;6.686;2023-04-04T13:07:28;102286.13;;;10.37;44.05
13068;BME280;6600;51.362;6.686;2023-04-04T13:09:59;102282.16;;;10.55;44.83
13068;BME280;6600;51.362;6.686;2023-04-04T13:12:25;102277.34;;;10.51;44.61
13068;BME280;6600;51.362;6.686;2023-04-04T13:14:57;102277.34;;;10.74;45.09